Cobourg, Canada
Current Conditions -  °F | °C
As of 7:00 PM on Tuesday 25 Nov 2014 (Local Time) from CYPQ Reporting Station
Broken Clouds Broken Clouds  
Wind Chill: 26°   Ceiling: 5000
Heat Index: 34°   Visibility: 9mi
Dew Point: 27°   Wind: 10mph
Humidity: 75%   Direction: 230°SW
Pressure: 30.03"   Gusts: 20mph
Location:  43.96°N, 78.17°W
Report Text: CYPQ 260000Z AUTO 23009G17KT 9SM BKN050 01/M03 A3003 RMK PRESRR SLP175
Loading
Personal Weather Stations






























Interactive Weather Map New forecast layout! Learn more

10-Day Weather Forecast

Advertisements
Track Severe Weather on mobile